createdAt,value
2018-09-04T00:01:02.246Z,100926.57
2018-09-04T00:03:30.459Z,100929.63
2018-09-04T00:05:58.673Z,100930.18
2018-09-04T00:08:26.902Z,100925.67
2018-09-04T00:10:55.110Z,100927.34
2018-09-04T00:13:23.343Z,100931.29
2018-09-04T00:15:51.559Z,100929.23
2018-09-04T00:18:19.773Z,100928.79
2018-09-04T00:20:47.990Z,100929.13
2018-09-04T00:23:16.221Z,100917.67
2018-09-04T00:25:44.433Z,100916.62
2018-09-04T00:28:12.654Z,100911.36
2018-09-04T00:30:40.878Z,100912.23
2018-09-04T00:33:09.126Z,100904.02
2018-09-04T00:35:37.352Z,100905.44
2018-09-04T00:38:05.569Z,100906.65
2018-09-04T00:40:33.788Z,100906.72
2018-09-04T00:43:02.010Z,100908.71
2018-09-04T00:45:30.230Z,100908.36
2018-09-04T00:47:58.447Z,100903.30
2018-09-04T00:50:26.665Z,100904.93
2018-09-04T00:52:54.874Z,100894.85
2018-09-04T00:55:23.097Z,100904.96
2018-09-04T00:57:51.321Z,100902.52
2018-09-04T01:00:22.797Z,100901.30
2018-09-04T01:02:51.014Z,100902.45
2018-09-04T01:05:19.234Z,100904.16
2018-09-04T01:07:47.459Z,100914.33
2018-09-04T01:10:15.694Z,100909.42
2018-09-04T01:12:43.910Z,100909.70
2018-09-04T01:15:12.134Z,100910.86
2018-09-04T01:17:40.408Z,100910.80
2018-09-04T01:20:08.642Z,100913.88
2018-09-04T01:22:36.850Z,100910.80
2018-09-04T01:25:05.089Z,100912.02
2018-09-04T01:27:33.309Z,100918.48
2018-09-04T01:30:01.521Z,100927.39
2018-09-04T01:32:29.742Z,100919.94
2018-09-04T01:34:57.969Z,100932.16
2018-09-04T01:37:26.181Z,100934.02
2018-09-04T01:39:54.433Z,100929.74
2018-09-04T01:42:22.663Z,100926.07
2018-09-04T01:44:50.881Z,100922.03
2018-09-04T01:47:19.093Z,100926.25
2018-09-04T01:49:47.322Z,100932.31
2018-09-04T01:52:15.527Z,100922.33
2018-09-04T01:54:43.753Z,100933.00
2018-09-04T01:57:11.972Z,100926.75
2018-09-04T01:59:40.193Z,100926.45
2018-09-04T02:02:08.428Z,100928.42
2018-09-04T02:04:36.653Z,100923.02
2018-09-04T02:07:04.974Z,100916.62
2018-09-04T02:09:33.210Z,100927.86
2018-09-04T02:12:01.422Z,100919.20
2018-09-04T02:14:29.625Z,100918.08
2018-09-04T02:16:57.891Z,100913.36
2018-09-04T02:19:26.094Z,100919.33
2018-09-04T02:21:54.306Z,100910.97
2018-09-04T02:24:22.525Z,100913.36
2018-09-04T02:26:50.729Z,100910.55
2018-09-04T02:29:18.934Z,100918.09
2018-09-04T02:31:47.162Z,100910.12
2018-09-04T02:34:15.379Z,100911.87
2018-09-04T02:36:43.585Z,100914.01
2018-09-04T02:39:12.717Z,100907.27
2018-09-04T02:41:40.940Z,100904.06
2018-09-04T02:44:09.175Z,100899.57
2018-09-04T02:46:37.782Z,100897.55
2018-09-04T02:49:06.828Z,100896.47
2018-09-04T02:51:35.154Z,100900.68
2018-09-04T02:54:03.436Z,100896.30
2018-09-04T02:56:31.694Z,100897.11
2018-09-04T02:58:59.969Z,100906.27
2018-09-04T03:01:28.349Z,100901.30
2018-09-04T03:03:56.579Z,100905.65
2018-09-04T03:06:24.802Z,100907.67
2018-09-04T03:08:53.114Z,100914.97
2018-09-04T03:11:21.436Z,100917.93
2018-09-04T03:13:49.690Z,100910.40
2018-09-04T03:16:17.923Z,100911.99
2018-09-04T03:18:46.125Z,100910.03
2018-09-04T03:21:14.349Z,100913.73
2018-09-04T03:23:42.589Z,100907.83
2018-09-04T03:26:10.798Z,100914.60
2018-09-04T03:28:39.007Z,100911.99
2018-09-04T03:31:07.374Z,100911.10
2018-09-04T03:33:35.598Z,100905.05
2018-09-04T03:36:03.875Z,100911.16
2018-09-04T03:38:32.102Z,100906.74
2018-09-04T03:41:00.331Z,100906.74
2018-09-04T03:43:28.570Z,100902.61
2018-09-04T03:45:56.785Z,100908.98
2018-09-04T03:48:25.047Z,100913.41
2018-09-04T03:50:53.298Z,100913.67
2018-09-04T03:53:21.567Z,100918.62
2018-09-04T03:55:49.777Z,100910.91
2018-09-04T03:58:18.017Z,100917.47
2018-09-04T04:00:46.225Z,100915.10
2018-09-04T04:03:14.445Z,100917.30
2018-09-04T04:05:42.742Z,100916.55
2018-09-04T04:08:10.986Z,100926.59
2018-09-04T04:10:39.206Z,100924.11
2018-09-04T04:13:07.475Z,100923.50
2018-09-04T04:15:35.783Z,100935.31
2018-09-04T04:18:04.013Z,100937.28
2018-09-04T04:20:32.268Z,100939.44
2018-09-04T04:23:00.493Z,100942.01
2018-09-04T04:25:28.735Z,100943.09
2018-09-04T04:27:56.997Z,100934.71
2018-09-04T04:30:25.235Z,100932.95
2018-09-04T04:32:53.529Z,100934.11
2018-09-04T04:35:21.775Z,100938.25
2018-09-04T04:37:49.982Z,100933.59
2018-09-04T04:40:18.206Z,100940.88
2018-09-04T04:42:46.459Z,100943.09
2018-09-04T04:45:14.670Z,100940.33
2018-09-04T04:47:48.206Z,100939.73
2018-09-04T04:50:16.894Z,100942.78
2018-09-04T04:52:45.121Z,100940.26
2018-09-04T04:55:13.350Z,100934.81
2018-09-04T04:57:41.578Z,100927.63
2018-09-04T05:00:09.804Z,100932.95
2018-09-04T05:02:38.051Z,100943.90
2018-09-04T05:05:06.491Z,100939.56
2018-09-04T05:07:34.775Z,100945.13
2018-09-04T05:10:03.121Z,100950.31
2018-09-04T05:12:31.371Z,100949.76
2018-09-04T05:14:59.596Z,100943.03
2018-09-04T05:17:27.869Z,100926.70
2018-09-04T05:19:56.102Z,100935.95
2018-09-04T05:22:24.338Z,100935.00
2018-09-04T05:24:52.568Z,100945.31
2018-09-04T05:27:20.793Z,100943.45
2018-09-04T05:29:49.005Z,100943.30
2018-09-04T05:32:23.716Z,100946.84
2018-09-04T05:34:51.946Z,100952.46
2018-09-04T05:37:20.163Z,100949.60
2018-09-04T05:39:48.402Z,100948.30
2018-09-04T05:42:21.997Z,100956.99
2018-09-04T05:44:50.257Z,100954.45
2018-09-04T05:47:18.507Z,100948.56
2018-09-04T05:49:46.733Z,100955.30
2018-09-04T05:52:15.797Z,100957.30
2018-09-04T05:54:44.005Z,100962.91
2018-09-04T05:57:12.213Z,100960.88
2018-09-04T05:59:40.491Z,100971.86
2018-09-04T06:02:08.741Z,100975.34
2018-09-04T06:04:37.025Z,100975.28
2018-09-04T06:07:05.275Z,100977.13
2018-09-04T06:09:33.515Z,100977.83
2018-09-04T06:12:01.773Z,100969.75
2018-09-04T06:14:30.003Z,100970.27
2018-09-04T06:16:58.221Z,100968.06
2018-09-04T06:19:26.457Z,100973.50
2018-09-04T06:21:54.678Z,100969.73
2018-09-04T06:24:23.135Z,100974.80
2018-09-04T06:26:51.354Z,100972.30
2018-09-04T06:29:19.599Z,100969.56
2018-09-04T06:31:47.906Z,100966.80
2018-09-04T06:34:16.198Z,100959.94
2018-09-04T06:36:44.498Z,100970.83
2018-09-04T06:39:12.670Z,100969.00
2018-09-04T06:41:40.984Z,100970.86
2018-09-04T06:44:09.270Z,100972.29
2018-09-04T06:46:37.545Z,100974.23
2018-09-04T06:49:05.866Z,100965.19
2018-09-04T06:51:34.083Z,100965.64
2018-09-04T06:54:02.307Z,100963.52
2018-09-04T06:56:30.561Z,100964.02
2018-09-04T06:58:58.829Z,100965.59
2018-09-04T07:01:27.039Z,100970.44
2018-09-04T07:03:55.262Z,100968.56
2018-09-04T07:06:23.519Z,100971.30
2018-09-04T07:08:51.747Z,100974.19
2018-09-04T07:11:19.986Z,100975.74
2018-09-04T07:13:48.274Z,100963.05
2018-09-04T07:16:16.547Z,100963.21
2018-09-04T07:18:44.802Z,100965.39
2018-09-04T07:21:13.022Z,100970.77
2018-09-04T07:23:41.259Z,100969.61
2018-09-04T07:26:09.542Z,100973.56
2018-09-04T07:28:37.753Z,100971.24
2018-09-04T07:31:06.113Z,100973.59
2018-09-04T07:33:34.347Z,100978.77
2018-09-04T07:36:02.561Z,100971.14
2018-09-04T07:38:30.815Z,100965.78
2018-09-04T07:40:59.038Z,100965.66
2018-09-04T07:43:27.253Z,100960.62
2018-09-04T07:45:55.497Z,100960.00
2018-09-04T07:48:23.718Z,100962.17
2018-09-04T07:50:51.942Z,100966.98
2018-09-04T07:53:20.177Z,100962.09
2018-09-04T07:55:48.385Z,100965.36
2018-09-04T07:58:16.640Z,100969.47
2018-09-04T08:00:44.869Z,100968.16
2018-09-04T08:03:13.095Z,100966.41
2018-09-04T08:05:41.303Z,100969.95
2018-09-04T08:08:09.550Z,100965.11
2018-09-04T08:10:37.791Z,100962.31
2018-09-04T08:13:07.198Z,100961.15
2018-09-04T08:15:35.777Z,100963.53
2018-09-04T08:18:04.067Z,100972.67
2018-09-04T08:20:32.490Z,100969.40
2018-09-04T08:23:00.601Z,100969.48
2018-09-04T08:25:28.845Z,100963.01
2018-09-04T08:27:57.076Z,100961.03
2018-09-04T08:30:25.302Z,100955.91
2018-09-04T08:32:53.580Z,100955.17
2018-09-04T08:35:21.794Z,100954.86
2018-09-04T08:37:54.178Z,100960.77
2018-09-04T08:40:22.527Z,100967.70
2018-09-04T08:42:50.754Z,100965.41
2018-09-04T08:45:18.979Z,100964.91
2018-09-04T08:47:47.330Z,100965.11
2018-09-04T08:50:15.429Z,100966.66
2018-09-04T08:52:43.658Z,100970.66
2018-09-04T08:55:11.991Z,100967.02
2018-09-04T08:57:40.898Z,100965.23
2018-09-04T09:00:09.197Z,100965.89
2018-09-04T09:02:37.542Z,100970.13
2018-09-04T09:05:05.946Z,100970.58
2018-09-04T09:07:34.177Z,100971.73
2018-09-04T09:10:02.461Z,100969.91
2018-09-04T09:12:30.714Z,100966.34
2018-09-04T09:14:59.177Z,100963.11
2018-09-04T09:17:27.418Z,100960.27
2018-09-04T09:19:56.001Z,100958.08
2018-09-04T09:22:24.274Z,100957.30
2018-09-04T09:24:52.514Z,100953.73
2018-09-04T09:27:20.771Z,100956.78
2018-09-04T09:29:48.997Z,100958.96
2018-09-04T09:32:17.252Z,100957.62
2018-09-04T09:34:45.465Z,100957.95
2018-09-04T09:37:13.718Z,100953.42
2018-09-04T09:39:41.938Z,100955.05
2018-09-04T09:42:13.150Z,100954.33
2018-09-04T09:44:42.665Z,100958.33
2018-09-04T09:47:10.880Z,100962.72
2018-09-04T09:49:39.263Z,100959.87
2018-09-04T09:52:07.506Z,100960.34
2018-09-04T09:54:35.726Z,100951.27
2018-09-04T09:57:04.011Z,100951.22
2018-09-04T09:59:32.335Z,100946.77
2018-09-04T10:02:05.745Z,100944.00
2018-09-04T10:04:33.936Z,100951.48
2018-09-04T10:07:02.241Z,100945.61
2018-09-04T10:09:30.507Z,100952.80
2018-09-04T10:11:58.777Z,100941.86
2018-09-04T10:14:27.014Z,100943.13
2018-09-04T10:16:55.273Z,100940.95
2018-09-04T10:19:23.507Z,100942.51
2018-09-04T10:21:52.790Z,100940.50
2018-09-04T10:24:21.024Z,100937.84
2018-09-04T10:26:49.278Z,100936.94
2018-09-04T10:29:17.518Z,100936.23
2018-09-04T10:31:45.775Z,100939.11
2018-09-04T10:34:16.050Z,100937.59
2018-09-04T10:36:44.960Z,100933.22
2018-09-04T10:39:18.526Z,100932.30
2018-09-04T10:41:46.776Z,100929.56
2018-09-04T10:44:15.014Z,100918.20
2018-09-04T10:46:43.210Z,100924.39
2018-09-04T10:49:11.456Z,100925.14
2018-09-04T10:51:39.725Z,100924.02
2018-09-04T10:54:08.010Z,100922.69
2018-09-04T10:56:36.294Z,100924.34
2018-09-04T10:59:04.756Z,100926.14
2018-09-04T11:01:33.031Z,100920.47
2018-09-04T11:04:01.318Z,100918.41
2018-09-04T11:06:29.600Z,100915.56
2018-09-04T11:08:57.835Z,100909.55
2018-09-04T11:11:26.103Z,100905.19
2018-09-04T11:13:54.370Z,100906.55
2018-09-04T11:16:22.632Z,100902.72
2018-09-04T11:18:50.858Z,100901.28
2018-09-04T11:21:19.086Z,100908.78
2018-09-04T11:23:47.371Z,100903.88
2018-09-04T11:26:15.566Z,100907.82
2018-09-04T11:28:46.901Z,100898.55
2018-09-04T11:31:15.108Z,100900.24
2018-09-04T11:33:43.403Z,100893.88
2018-09-04T11:36:11.636Z,100896.74
2018-09-04T11:38:39.867Z,100891.94
2018-09-04T11:41:08.090Z,100892.92
2018-09-04T11:43:37.147Z,100895.86
2018-09-04T11:46:06.176Z,100896.38
2018-09-04T11:48:38.934Z,100893.30
2018-09-04T11:51:09.014Z,100892.45
2018-09-04T11:53:37.229Z,100888.63
2018-09-04T11:56:05.602Z,100886.71
2018-09-04T11:58:34.045Z,100884.49
2018-09-04T12:01:03.878Z,100889.83
2018-09-04T12:03:32.336Z,100887.39
2018-09-04T12:06:00.557Z,100888.28
2018-09-04T12:08:28.836Z,100888.41
2018-09-04T12:10:58.111Z,100886.56
2018-09-04T12:13:31.959Z,100888.66
2018-09-04T12:16:00.714Z,100879.94
2018-09-04T12:18:29.347Z,100881.66
2018-09-04T12:20:59.120Z,100879.25
2018-09-04T12:23:27.189Z,100880.09
2018-09-04T12:25:56.717Z,100878.23
2018-09-04T12:28:24.983Z,100879.27
2018-09-04T12:30:53.269Z,100871.47
2018-09-04T12:33:21.487Z,100871.36
2018-09-04T12:35:49.725Z,100869.48
2018-09-04T12:38:19.596Z,100877.67
2018-09-04T12:40:48.295Z,100877.09
2018-09-04T12:43:16.557Z,100872.72
2018-09-04T12:45:52.046Z,100874.91
2018-09-04T12:48:23.644Z,100875.80
2018-09-04T12:50:52.565Z,100874.83
2018-09-04T12:53:21.234Z,100872.59
2018-09-04T12:55:49.674Z,100867.94
2018-09-04T12:58:17.931Z,100866.69
2018-09-04T13:00:48.301Z,100867.16
2018-09-04T13:03:17.854Z,100864.80
2018-09-04T13:05:46.062Z,100864.78
2018-09-04T13:08:15.235Z,100872.18
2018-09-04T13:10:43.553Z,100866.95
2018-09-04T13:13:11.796Z,100866.66
2018-09-04T13:15:41.064Z,100870.95
2018-09-04T13:18:09.298Z,100861.53
2018-09-04T13:20:37.603Z,100862.03
2018-09-04T13:23:06.121Z,100862.86
2018-09-04T13:25:34.369Z,100858.52
2018-09-04T13:28:02.631Z,100859.84
2018-09-04T13:30:30.902Z,100855.25
2018-09-04T13:32:59.139Z,100850.51
2018-09-04T13:35:27.410Z,100851.84
2018-09-04T13:37:55.657Z,100847.47
2018-09-04T13:40:23.908Z,100848.60
2018-09-04T13:42:52.298Z,100847.86
2018-09-04T13:45:21.218Z,100849.38
2018-09-04T13:47:49.546Z,100854.31
2018-09-04T13:50:17.793Z,100855.84
2018-09-04T13:52:46.039Z,100857.72
2018-09-04T13:55:14.277Z,100846.52
2018-09-04T13:57:42.535Z,100848.05
2018-09-04T14:00:11.830Z,100852.72
2018-09-04T14:02:40.101Z,100852.33
2018-09-04T14:05:08.442Z,100850.72
2018-09-04T14:07:36.662Z,100852.12
2018-09-04T14:10:04.974Z,100843.31
2018-09-04T14:12:33.218Z,100847.11
2018-09-04T14:15:01.486Z,100842.45
2018-09-04T14:17:29.732Z,100846.72
2018-09-04T14:19:57.974Z,100847.11
2018-09-04T14:22:26.251Z,100841.01
2018-09-04T14:24:54.465Z,100836.81
2018-09-04T14:27:22.687Z,100833.69
2018-09-04T14:29:54.272Z,100837.60
2018-09-04T14:32:19.771Z,100839.68
2018-09-04T14:34:48.035Z,100837.41
2018-09-04T14:37:16.478Z,100838.85
2018-09-04T14:39:44.567Z,100840.06
2018-09-04T14:42:12.822Z,100836.63
2018-09-04T14:44:41.019Z,100839.80
2018-09-04T14:47:09.242Z,100845.66
2018-09-04T14:49:37.475Z,100851.77
2018-09-04T14:52:06.022Z,100848.92
2018-09-04T14:54:34.247Z,100851.77
2018-09-04T14:57:02.507Z,100853.58
2018-09-04T14:59:30.719Z,100857.37
2018-09-04T15:01:58.940Z,100853.66
2018-09-04T15:04:27.180Z,100849.94
2018-09-04T15:06:55.400Z,100857.73
2018-09-04T15:09:23.622Z,100857.65
2018-09-04T15:11:51.859Z,100854.91
2018-09-04T15:14:20.065Z,100854.98
2018-09-04T15:16:48.447Z,100856.52
2018-09-04T15:19:16.718Z,100851.66
2018-09-04T15:21:44.941Z,100848.60
2018-09-04T15:24:13.161Z,100845.06
2018-09-04T15:26:41.374Z,100846.66
2018-09-04T15:29:09.615Z,100842.98
2018-09-04T15:31:37.865Z,100845.94
2018-09-04T15:34:06.146Z,100843.00
2018-09-04T15:36:34.368Z,100840.61
2018-09-04T15:39:02.655Z,100838.72
2018-09-04T15:41:30.874Z,100842.98
2018-09-04T15:43:59.100Z,100845.94
2018-09-04T15:46:27.341Z,100846.33
2018-09-04T15:49:00.795Z,100857.37
2018-09-04T15:51:29.067Z,100848.05
2018-09-04T15:53:57.282Z,100855.17
2018-09-04T15:56:25.562Z,100857.53
2018-09-04T15:58:53.786Z,100856.98
2018-09-04T16:01:22.030Z,100862.23
2018-09-04T16:03:50.268Z,100856.23
2018-09-04T16:06:18.478Z,100857.17
2018-09-04T16:08:46.844Z,100851.84
2018-09-04T16:11:15.074Z,100859.33
2018-09-04T16:13:43.313Z,100858.52
2018-09-04T16:16:11.542Z,100853.77
2018-09-04T16:18:39.757Z,100853.46
2018-09-04T16:21:08.015Z,100857.09
2018-09-04T16:23:38.281Z,100864.03
2018-09-04T16:26:06.639Z,100863.63
2018-09-04T16:28:35.277Z,100859.64
2018-09-04T16:31:03.511Z,100860.95
2018-09-04T16:33:31.739Z,100856.27
2018-09-04T16:35:59.975Z,100864.33
2018-09-04T16:38:28.256Z,100857.61
2018-09-04T16:40:56.685Z,100868.94
2018-09-04T16:43:25.017Z,100865.24
2018-09-04T16:45:53.342Z,100868.74
2018-09-04T16:48:21.588Z,100861.39
2018-09-04T16:50:49.807Z,100866.81
2018-09-04T16:53:18.063Z,100869.91
2018-09-04T16:55:46.357Z,100876.81
2018-09-04T16:58:14.616Z,100880.80
2018-09-04T17:00:42.841Z,100883.50
2018-09-04T17:03:11.069Z,100885.94
2018-09-04T17:05:39.294Z,100889.05
2018-09-04T17:08:07.547Z,100892.44
2018-09-04T17:10:35.813Z,100901.14
2018-09-04T17:13:04.049Z,100896.47
2018-09-04T17:15:32.398Z,100901.89
2018-09-04T17:18:00.637Z,100897.64
2018-09-04T17:20:28.920Z,100908.36
2018-09-04T17:22:57.182Z,100907.77
2018-09-04T17:25:25.437Z,100915.39
2018-09-04T17:27:53.671Z,100913.07
2018-09-04T17:30:21.870Z,100911.47
2018-09-04T17:32:50.728Z,100921.27
2018-09-04T17:35:19.090Z,100920.69
2018-09-04T17:37:47.330Z,100919.92
2018-09-04T17:40:18.203Z,100921.33
2018-09-04T17:42:46.546Z,100924.02
2018-09-04T17:45:14.783Z,100930.62
2018-09-04T17:47:43.079Z,100933.55
2018-09-04T17:50:11.330Z,100937.06
2018-09-04T17:52:39.569Z,100938.89
2018-09-04T17:55:07.861Z,100937.20
2018-09-04T17:57:36.351Z,100938.36
2018-09-04T18:00:04.735Z,100942.27
2018-09-04T18:02:32.966Z,100934.55
2018-09-04T18:05:01.212Z,100942.51
2018-09-04T18:07:29.490Z,100941.98
2018-09-04T18:09:57.750Z,100940.64
2018-09-04T18:12:26.109Z,100934.09
2018-09-04T18:14:54.360Z,100939.39
2018-09-04T18:17:22.597Z,100944.05
2018-09-04T18:19:50.875Z,100940.39
2018-09-04T18:22:19.134Z,100938.67
2018-09-04T18:24:47.675Z,100941.64
2018-09-04T18:27:15.998Z,100938.51
2018-09-04T18:29:44.229Z,100939.84
2018-09-04T18:32:12.447Z,100946.02
2018-09-04T18:34:40.738Z,100946.38
2018-09-04T18:37:10.168Z,100955.67
2018-09-04T18:39:38.377Z,100957.06
2018-09-04T18:42:06.629Z,100958.17
2018-09-04T18:44:34.866Z,100969.86
2018-09-04T18:47:03.086Z,100965.97
2018-09-04T18:49:31.345Z,100969.70
2018-09-04T18:51:59.569Z,100972.11
2018-09-04T18:54:27.819Z,100978.06
2018-09-04T18:56:56.049Z,100981.55
2018-09-04T18:59:24.332Z,100982.86
2018-09-04T19:01:52.518Z,100983.84
2018-09-04T19:04:20.838Z,100988.92
2018-09-04T19:06:49.292Z,100985.09
2018-09-04T19:09:17.611Z,100988.75
2018-09-04T19:11:45.989Z,100992.75
2018-09-04T19:14:14.330Z,100988.92
2018-09-04T19:16:42.526Z,100989.06
2018-09-04T19:19:10.753Z,100984.45
2018-09-04T19:21:38.982Z,100988.03
2018-09-04T19:24:07.311Z,100996.94
2018-09-04T19:26:35.530Z,100996.28
2018-09-04T19:29:04.433Z,100990.12
2018-09-04T19:31:32.846Z,100991.12
2018-09-04T19:34:01.066Z,100995.09
2018-09-04T19:36:29.313Z,100997.60
2018-09-04T19:38:57.694Z,101000.45
2018-09-04T19:41:25.927Z,100996.34
2018-09-04T19:43:54.150Z,101004.87
2018-09-04T19:46:22.425Z,100999.17
2018-09-04T19:48:50.705Z,100997.55
2018-09-04T19:51:19.009Z,101000.48
2018-09-04T19:53:47.250Z,100995.91
2018-09-04T19:56:15.519Z,101006.73
2018-09-04T19:58:43.740Z,101009.70
2018-09-04T20:01:12.007Z,101006.68
2018-09-04T20:04:13.298Z,101019.43
2018-09-04T20:06:41.549Z,101009.58
2018-09-04T20:09:09.790Z,101014.59
2018-09-04T20:11:38.082Z,101010.91
2018-09-04T20:14:06.357Z,101014.16
2018-09-04T20:16:34.754Z,101017.33
2018-09-04T20:19:03.034Z,101026.36
2018-09-04T20:21:31.327Z,101024.34
2018-09-04T20:23:59.558Z,101024.93
2018-09-04T20:26:27.828Z,101026.93
2018-09-04T20:28:56.182Z,101028.58
2018-09-04T20:31:24.693Z,101028.77
2018-09-04T20:33:52.985Z,101026.20
2018-09-04T20:36:21.254Z,101022.23
2018-09-04T20:38:49.485Z,101023.74
2018-09-04T20:41:18.225Z,101025.25
2018-09-04T20:43:46.486Z,101019.83
2018-09-04T20:46:14.833Z,101032.27
2018-09-04T20:48:43.062Z,101026.94
2018-09-04T20:51:11.307Z,101034.00
2018-09-04T20:53:39.635Z,101037.75
2018-09-04T20:56:08.015Z,101042.84
2018-09-04T20:58:47.601Z,101039.46
2018-09-04T21:01:26.978Z,101044.70
2018-09-04T21:04:06.471Z,101038.08
2018-09-04T21:06:46.443Z,101043.43
2018-09-04T21:09:23.014Z,101037.13
2018-09-04T21:11:51.244Z,101042.97
2018-09-04T21:14:19.494Z,101040.33
2018-09-04T21:16:47.756Z,101039.40
2018-09-04T21:19:15.986Z,101041.50
2018-09-04T21:21:44.198Z,101037.23
2018-09-04T21:24:12.432Z,101034.61
2018-09-04T21:26:40.641Z,101034.54
2018-09-04T21:29:09.010Z,101036.08
2018-09-04T21:31:37.235Z,101031.49
2018-09-04T21:34:05.538Z,101031.84
2018-09-04T21:36:33.759Z,101030.09
2018-09-04T21:39:02.007Z,101027.08
2018-09-04T21:41:30.218Z,101028.39
2018-09-04T21:43:58.442Z,101028.94
2018-09-04T21:46:26.683Z,101025.75
2018-09-04T21:48:54.895Z,101030.98
2018-09-04T21:51:23.127Z,101024.95
2018-09-04T21:53:51.344Z,101031.75
2018-09-04T21:56:19.602Z,101033.20
2018-09-04T21:58:47.820Z,101029.36
2018-09-04T22:01:17.817Z,101025.84
2018-09-04T22:03:46.414Z,101029.16
2018-09-04T22:06:14.670Z,101027.50
2018-09-04T22:08:42.990Z,101027.42
2018-09-04T22:11:11.261Z,101032.53
2018-09-04T22:13:39.474Z,101033.03
2018-09-04T22:16:07.707Z,101033.19
2018-09-04T22:18:36.449Z,101027.45
2018-09-04T22:21:04.915Z,101025.73
2018-09-04T22:23:33.147Z,101021.73
2018-09-04T22:26:01.441Z,101023.05
2018-09-04T22:28:29.650Z,101018.71
2018-09-04T22:30:57.887Z,101024.98
2018-09-04T22:33:26.104Z,101022.67
2018-09-04T22:35:54.354Z,101018.42
2018-09-04T22:38:22.553Z,101030.23
2018-09-04T22:40:50.808Z,101027.55
2018-09-04T22:43:19.015Z,101029.69
2018-09-04T22:45:47.296Z,101030.39
2018-09-04T22:48:15.522Z,101029.44
2018-09-04T22:50:49.030Z,101033.61
2018-09-04T22:53:17.247Z,101020.98
2018-09-04T22:55:45.582Z,101023.21
2018-09-04T22:58:13.810Z,101015.12
2018-09-04T23:00:42.033Z,101015.45
2018-09-04T23:03:10.251Z,101009.09
2018-09-04T23:05:38.497Z,101013.63
2018-09-04T23:08:06.721Z,101015.17
2018-09-04T23:10:34.945Z,101014.59
2018-09-04T23:13:03.166Z,101019.91
2018-09-04T23:15:31.406Z,101015.82
2018-09-04T23:17:59.626Z,101019.70
2018-09-04T23:20:27.853Z,101013.14
2018-09-04T23:22:56.078Z,101016.11
2018-09-04T23:25:24.302Z,101020.81
2018-09-04T23:27:52.560Z,101016.52
2018-09-04T23:30:20.742Z,101014.62
2018-09-04T23:32:48.961Z,101016.14
2018-09-04T23:35:17.262Z,101011.19
2018-09-04T23:37:45.473Z,101013.87
2018-09-04T23:40:13.727Z,101014.36
2018-09-04T23:42:41.938Z,101009.37
2018-09-04T23:45:12.243Z,101012.55
2018-09-04T23:47:40.862Z,101013.25
2018-09-04T23:50:09.094Z,101012.46
2018-09-04T23:52:37.301Z,101011.23
2018-09-04T23:55:05.761Z,101005.86
2018-09-04T23:57:33.977Z,101005.50
